sensor_id;sensor_type;location;lat;lon;timestamp;pressure;altitude;pressure_sealevel;temperature;humidity
22047;BME280;11187;49.412;20.956;2023-05-08T00:02:19;95759.25;;;3.79;100.00
22047;BME280;11187;49.412;20.956;2023-05-08T00:05:13;95767.75;;;3.81;100.00
22047;BME280;11187;49.412;20.956;2023-05-08T00:08:07;95776.06;;;3.72;100.00
22047;BME280;11187;49.412;20.956;2023-05-08T00:11:01;95765.03;;;3.72;100.00
22047;BME280;11187;49.412;20.956;2023-05-08T00:13:37;95774.31;;;3.71;100.00
22047;BME280;11187;49.412;20.956;2023-05-08T00:16:24;95773.53;;;3.72;100.00
22047;BME280;11187;49.412;20.956;2023-05-08T00:19:18;95764.25;;;3.73;100.00
22047;BME280;11187;49.412;20.956;2023-05-08T00:22:12;95767.56;;;3.72;100.00
22047;BME280;11187;49.412;20.956;2023-05-08T00:24:45;95767.56;;;3.70;100.00
22047;BME280;11187;49.412;20.956;2023-05-08T00:27:39;95769.19;;;3.67;100.00
22047;BME280;11187;49.412;20.956;2023-05-08T00:30:33;95770.88;;;3.66;100.00
22047;BME280;11187;49.412;20.956;2023-05-08T00:33:06;95776.78;;;3.67;100.00
22047;BME280;11187;49.412;20.956;2023-05-08T00:36:03;95775.94;;;3.66;100.00
22047;BME280;11187;49.412;20.956;2023-05-08T00:38:37;95774.19;;;3.65;100.00
22047;BME280;11187;49.412;20.956;2023-05-08T00:41:24;95764.84;;;3.60;100.00
22047;BME280;11187;49.412;20.956;2023-05-08T00:43:57;95767.31;;;3.58;100.00
22047;BME280;11187;49.412;20.956;2023-05-08T00:46:44;95767.28;;;3.55;100.00
22047;BME280;11187;49.412;20.956;2023-05-08T00:49:18;95781.63;;;3.54;100.00
22047;BME280;11187;49.412;20.956;2023-05-08T00:52:05;95773.13;;;3.52;100.00
22047;BME280;11187;49.412;20.956;2023-05-08T00:54:41;95774.66;;;3.44;100.00
22047;BME280;11187;49.412;20.956;2023-05-08T00:57:30;95778.91;;;3.45;100.00
22047;BME280;11187;49.412;20.956;2023-05-08T01:00:04;95772.16;;;3.46;100.00
22047;BME280;11187;49.412;20.956;2023-05-08T01:02:52;95778.16;;;3.51;100.00
22047;BME280;11187;49.412;20.956;2023-05-08T01:05:28;95773.03;;;3.48;100.00
22047;BME280;11187;49.412;20.956;2023-05-08T01:08:15;95787.50;;;3.53;100.00
22047;BME280;11187;49.412;20.956;2023-05-08T01:11:07;95782.28;;;3.47;100.00
22047;BME280;11187;49.412;20.956;2023-05-08T01:14:11;95772.13;;;3.44;100.00
22047;BME280;11187;49.412;20.956;2023-05-08T01:17:15;95777.13;;;3.41;100.00
22047;BME280;11187;49.412;20.956;2023-05-08T01:29:42;95783.09;;;3.43;100.00
22047;BME280;11187;49.412;20.956;2023-05-08T01:32:22;95784.72;;;3.41;100.00
22047;BME280;11187;49.412;20.956;2023-05-08T01:35:28;95793.16;;;3.42;100.00
22047;BME280;11187;49.412;20.956;2023-05-08T01:41:15;95797.34;;;3.40;100.00
22047;BME280;11187;49.412;20.956;2023-05-08T01:44:15;95797.38;;;3.41;100.00
22047;BME280;11187;49.412;20.956;2023-05-08T01:47:11;95795.69;;;3.42;100.00
22047;BME280;11187;49.412;20.956;2023-05-08T01:50:25;95789.72;;;3.38;100.00
22047;BME280;11187;49.412;20.956;2023-05-08T01:53:19;95795.56;;;3.35;100.00
22047;BME280;11187;49.412;20.956;2023-05-08T01:56:19;95793.03;;;3.35;100.00
22047;BME280;11187;49.412;20.956;2023-05-08T01:58:55;95794.00;;;3.41;100.00
22047;BME280;11187;49.412;20.956;2023-05-08T02:01:43;95796.59;;;3.44;100.00
22047;BME280;11187;49.412;20.956;2023-05-08T02:04:28;95793.22;;;3.45;100.00
22047;BME280;11187;49.412;20.956;2023-05-08T02:07:09;95791.56;;;3.45;100.00
22047;BME280;11187;49.412;20.956;2023-05-08T02:09:50;95795.81;;;3.48;100.00
22047;BME280;11187;49.412;20.956;2023-05-08T02:12:33;95788.25;;;3.49;100.00
22047;BME280;11187;49.412;20.956;2023-05-08T02:15:23;95791.56;;;3.47;100.00
22047;BME280;11187;49.412;20.956;2023-05-08T02:18:19;95792.47;;;3.49;100.00
22047;BME280;11187;49.412;20.956;2023-05-08T02:21:13;95792.25;;;3.38;100.00
22047;BME280;11187;49.412;20.956;2023-05-08T02:24:08;95791.28;;;3.33;100.00
22047;BME280;11187;49.412;20.956;2023-05-08T02:26:43;95803.16;;;3.35;100.00
22047;BME280;11187;49.412;20.956;2023-05-08T02:29:30;95803.16;;;3.35;100.00
22047;BME280;11187;49.412;20.956;2023-05-08T02:32:07;95802.25;;;3.32;100.00
22047;BME280;11187;49.412;20.956;2023-05-08T02:35:02;95805.59;;;3.31;100.00
22047;BME280;11187;49.412;20.956;2023-05-08T02:37:37;95805.69;;;3.34;100.00
22047;BME280;11187;49.412;20.956;2023-05-08T02:40:26;95809.81;;;3.30;100.00
22047;BME280;11187;49.412;20.956;2023-05-08T02:43:01;95813.13;;;3.28;100.00
22047;BME280;11187;49.412;20.956;2023-05-08T02:45:58;95802.91;;;3.23;100.00
22047;BME280;11187;49.412;20.956;2023-05-08T02:48:37;95801.13;;;3.19;100.00
22047;BME280;11187;49.412;20.956;2023-05-08T02:54:57;95811.97;;;3.12;100.00
22047;BME280;11187;49.412;20.956;2023-05-08T02:57:38;95808.38;;;3.02;100.00
22047;BME280;11187;49.412;20.956;2023-05-08T03:00:41;95797.31;;;2.99;100.00
22047;BME280;11187;49.412;20.956;2023-05-08T03:03:23;95811.66;;;2.98;100.00
22047;BME280;11187;49.412;20.956;2023-05-08T03:06:12;95817.56;;;2.99;100.00
22047;BME280;11187;49.412;20.956;2023-05-08T03:08:47;95814.88;;;2.92;100.00
22047;BME280;11187;49.412;20.956;2023-05-08T03:11:40;95811.47;;;2.89;100.00
22047;BME280;11187;49.412;20.956;2023-05-08T03:14:18;95816.56;;;2.92;100.00
22047;BME280;11187;49.412;20.956;2023-05-08T03:17:07;95804.75;;;2.91;100.00
22047;BME280;11187;49.412;20.956;2023-05-08T03:19:49;95804.78;;;2.92;100.00
22047;BME280;11187;49.412;20.956;2023-05-08T03:22:46;95808.97;;;2.92;100.00
22047;BME280;11187;49.412;20.956;2023-05-08T03:25:42;95808.19;;;2.93;100.00
22047;BME280;11187;49.412;20.956;2023-05-08T03:28:16;95818.31;;;2.95;100.00
22047;BME280;11187;49.412;20.956;2023-05-08T03:31:11;95817.47;;;2.94;100.00
22047;BME280;11187;49.412;20.956;2023-05-08T03:33:52;95812.31;;;2.89;100.00
22047;BME280;11187;49.412;20.956;2023-05-08T03:36:39;95809.88;;;2.94;100.00
22047;BME280;11187;49.412;20.956;2023-05-08T03:39:12;95815.88;;;2.98;100.00
22047;BME280;11187;49.412;20.956;2023-05-08T03:41:59;95814.16;;;2.97;100.00
22047;BME280;11187;49.412;20.956;2023-05-08T03:44:32;95823.47;;;2.98;100.00
22047;BME280;11187;49.412;20.956;2023-05-08T03:47:20;95821.78;;;2.98;100.00
22047;BME280;11187;49.412;20.956;2023-05-08T03:49:54;95819.25;;;2.98;100.00
22047;BME280;11187;49.412;20.956;2023-05-08T03:52:42;95815.88;;;2.98;100.00
22047;BME280;11187;49.412;20.956;2023-05-08T03:55:15;95825.88;;;2.93;100.00
22047;BME280;11187;49.412;20.956;2023-05-08T03:58:07;95824.25;;;2.97;100.00
22047;BME280;11187;49.412;20.956;2023-05-08T04:01:05;95827.69;;;2.99;100.00
22047;BME280;11187;49.412;20.956;2023-05-08T04:04:15;95839.47;;;2.98;100.00
22047;BME280;11187;49.412;20.956;2023-05-08T04:07:10;95833.47;;;2.95;100.00
22047;BME280;11187;49.412;20.956;2023-05-08T04:15:53;95839.38;;;2.95;100.00
22047;BME280;11187;49.412;20.956;2023-05-08T04:18:58;95845.44;;;3.00;100.00
22047;BME280;11187;49.412;20.956;2023-05-08T04:21:34;95845.38;;;2.99;100.00
22047;BME280;11187;49.412;20.956;2023-05-08T04:24:29;95836.16;;;3.01;100.00
22047;BME280;11187;49.412;20.956;2023-05-08T04:27:02;95843.78;;;3.02;100.00
22047;BME280;11187;49.412;20.956;2023-05-08T04:29:50;95848.88;;;3.04;100.00
22047;BME280;11187;49.412;20.956;2023-05-08T04:32:24;95845.53;;;3.06;100.00
22047;BME280;11187;49.412;20.956;2023-05-08T04:35:21;95848.84;;;3.02;100.00
22047;BME280;11187;49.412;20.956;2023-05-08T04:38:15;95854.81;;;3.06;100.00
22047;BME280;11187;49.412;20.956;2023-05-08T04:40:48;95857.44;;;3.09;100.00
22047;BME280;11187;49.412;20.956;2023-05-08T04:43:35;95856.53;;;3.07;100.00
22047;BME280;11187;49.412;20.956;2023-05-08T04:46:08;95864.97;;;3.07;100.00
22047;BME280;11187;49.412;20.956;2023-05-08T04:48:56;95859.00;;;3.04;100.00
22047;BME280;11187;49.412;20.956;2023-05-08T04:51:29;95862.44;;;3.07;100.00
22047;BME280;11187;49.412;20.956;2023-05-08T04:54:16;95874.34;;;3.11;100.00
22047;BME280;11187;49.412;20.956;2023-05-08T04:56:49;95868.34;;;3.08;100.00
22047;BME280;11187;49.412;20.956;2023-05-08T04:59:43;95881.78;;;3.05;100.00
22047;BME280;11187;49.412;20.956;2023-05-08T05:02:16;95875.09;;;3.07;100.00
22047;BME280;11187;49.412;20.956;2023-05-08T05:05:03;95869.22;;;3.08;100.00
22047;BME280;11187;49.412;20.956;2023-05-08T05:07:37;95873.38;;;3.06;100.00
22047;BME280;11187;49.412;20.956;2023-05-08T05:10:31;95880.22;;;3.09;100.00
22047;BME280;11187;49.412;20.956;2023-05-08T05:13:04;95873.47;;;3.11;100.00
22047;BME280;11187;49.412;20.956;2023-05-08T05:15:51;95873.38;;;3.06;100.00
22047;BME280;11187;49.412;20.956;2023-05-08T05:18:45;95881.84;;;3.07;100.00
22047;BME280;11187;49.412;20.956;2023-05-08T05:21:39;95885.25;;;3.09;100.00
22047;BME280;11187;49.412;20.956;2023-05-08T05:24:33;95880.16;;;3.07;100.00
22047;BME280;11187;49.412;20.956;2023-05-08T05:27:27;95883.59;;;3.11;100.00
22047;BME280;11187;49.412;20.956;2023-05-08T05:30:00;95895.56;;;3.17;100.00
22047;BME280;11187;49.412;20.956;2023-05-08T05:32:47;95888.88;;;3.20;100.00
22047;BME280;11187;49.412;20.956;2023-05-08T05:35:20;95890.44;;;3.15;100.00
22047;BME280;11187;49.412;20.956;2023-05-08T05:38:14;95897.13;;;3.13;100.00
22047;BME280;11187;49.412;20.956;2023-05-08T05:40:48;95896.22;;;3.09;100.00
22047;BME280;11187;49.412;20.956;2023-05-08T05:43:42;95897.09;;;3.10;100.00
22047;BME280;11187;49.412;20.956;2023-05-08T05:46:15;95906.41;;;3.12;100.00
22047;BME280;11187;49.412;20.956;2023-05-08T05:49:07;95902.19;;;3.11;100.00
22047;BME280;11187;49.412;20.956;2023-05-08T05:51:40;95909.00;;;3.14;100.00
22047;BME280;11187;49.412;20.956;2023-05-08T05:54:34;95903.94;;;3.14;100.00
22047;BME280;11187;49.412;20.956;2023-05-08T05:57:28;95911.53;;;3.16;100.00
22047;BME280;11187;49.412;20.956;2023-05-08T06:00:15;95921.75;;;3.19;100.00
22047;BME280;11187;49.412;20.956;2023-05-08T06:02:56;95917.63;;;3.24;100.00
22047;BME280;11187;49.412;20.956;2023-05-08T06:05:29;95923.59;;;3.26;100.00
22047;BME280;11187;49.412;20.956;2023-05-08T06:08:16;95924.47;;;3.28;100.00
22047;BME280;11187;49.412;20.956;2023-05-08T06:10:50;95922.84;;;3.31;100.00
22047;BME280;11187;49.412;20.956;2023-05-08T06:13:44;95929.66;;;3.32;100.00
22047;BME280;11187;49.412;20.956;2023-05-08T06:16:38;95919.41;;;3.28;100.00
22047;BME280;11187;49.412;20.956;2023-05-08T06:19:32;95924.59;;;3.32;100.00
22047;BME280;11187;49.412;20.956;2023-05-08T06:22:26;95925.59;;;3.39;100.00
22047;BME280;11187;49.412;20.956;2023-05-08T06:25:00;95933.91;;;3.35;100.00
22047;BME280;11187;49.412;20.956;2023-05-08T06:27:47;95938.16;;;3.36;100.00
22047;BME280;11187;49.412;20.956;2023-05-08T06:30:20;95935.56;;;3.33;100.00
22047;BME280;11187;49.412;20.956;2023-05-08T06:33:08;95939.66;;;3.28;100.00
22047;BME280;11187;49.412;20.956;2023-05-08T06:35:45;95943.94;;;3.30;100.00
22047;BME280;11187;49.412;20.956;2023-05-08T06:38:32;95937.28;;;3.35;100.00
22047;BME280;11187;49.412;20.956;2023-05-08T06:41:05;95939.97;;;3.42;100.00
22047;BME280;11187;49.412;20.956;2023-05-08T06:43:59;95938.38;;;3.45;100.00
22047;BME280;11187;49.412;20.956;2023-05-08T06:46:53;95949.41;;;3.49;100.00
22047;BME280;11187;49.412;20.956;2023-05-08T06:49:28;95948.59;;;3.50;100.00
22047;BME280;11187;49.412;20.956;2023-05-08T06:52:22;95964.66;;;3.50;100.00
22047;BME280;11187;49.412;20.956;2023-05-08T06:55:16;95956.94;;;3.46;100.00
22047;BME280;11187;49.412;20.956;2023-05-08T06:57:49;95958.63;;;3.45;100.00
22047;BME280;11187;49.412;20.956;2023-05-08T07:00:43;95970.44;;;3.46;100.00
22047;BME280;11187;49.412;20.956;2023-05-08T07:03:37;95970.50;;;3.49;100.00
22047;BME280;11187;49.412;20.956;2023-05-08T07:06:31;95972.94;;;3.45;100.00
22047;BME280;11187;49.412;20.956;2023-05-08T07:09:04;95971.25;;;3.44;100.00
22047;BME280;11187;49.412;20.956;2023-05-08T07:11:58;95976.34;;;3.45;100.00
22047;BME280;11187;49.412;20.956;2023-05-08T07:14:31;95978.72;;;3.39;100.00
22047;BME280;11187;49.412;20.956;2023-05-08T07:17:18;95978.59;;;3.33;100.00
22047;BME280;11187;49.412;20.956;2023-05-08T07:19:51;95985.44;;;3.37;100.00
22047;BME280;11187;49.412;20.956;2023-05-08T07:22:38;95979.53;;;3.38;100.00
22047;BME280;11187;49.412;20.956;2023-05-08T07:25:11;95987.22;;;3.43;100.00
22047;BME280;11187;49.412;20.956;2023-05-08T07:27:58;95993.09;;;3.40;100.00
22047;BME280;11187;49.412;20.956;2023-05-08T07:30:31;95986.47;;;3.45;100.00
22047;BME280;11187;49.412;20.956;2023-05-08T07:33:25;95990.56;;;3.40;100.00
22047;BME280;11187;49.412;20.956;2023-05-08T07:35:59;95997.25;;;3.37;100.00
22047;BME280;11187;49.412;20.956;2023-05-08T07:38:53;96004.84;;;3.37;100.00
22047;BME280;11187;49.412;20.956;2023-05-08T07:41:47;96002.38;;;3.40;100.00
22047;BME280;11187;49.412;20.956;2023-05-08T07:44:41;96002.47;;;3.44;100.00
22047;BME280;11187;49.412;20.956;2023-05-08T07:47:20;95990.66;;;3.43;100.00
22047;BME280;11187;49.412;20.956;2023-05-08T07:50:15;96006.69;;;3.44;100.00
22047;BME280;11187;49.412;20.956;2023-05-08T07:53:09;96002.47;;;3.44;100.00
22047;BME280;11187;49.412;20.956;2023-05-08T07:56:03;96010.81;;;3.40;100.00
22047;BME280;11187;49.412;20.956;2023-05-08T07:58:57;96000.94;;;3.51;100.00
22047;BME280;11187;49.412;20.956;2023-05-08T08:01:30;96017.09;;;3.56;100.00
22047;BME280;11187;49.412;20.956;2023-05-08T08:04:24;96009.47;;;3.54;100.00
22047;BME280;11187;49.412;20.956;2023-05-08T08:07:00;96011.16;;;3.55;100.00
22047;BME280;11187;49.412;20.956;2023-05-08T08:09:54;96013.88;;;3.63;100.00
22047;BME280;11187;49.412;20.956;2023-05-08T08:12:48;96012.22;;;3.64;100.00
22047;BME280;11187;49.412;20.956;2023-05-08T08:15:42;96017.47;;;3.73;100.00
22047;BME280;11187;49.412;20.956;2023-05-08T08:18:36;96020.97;;;3.78;100.00
22047;BME280;11187;49.412;20.956;2023-05-08T08:21:09;96019.28;;;3.77;100.00
22047;BME280;11187;49.412;20.956;2023-05-08T08:23:56;96025.28;;;3.82;100.00
22047;BME280;11187;49.412;20.956;2023-05-08T08:26:30;96024.59;;;3.89;100.00
22047;BME280;11187;49.412;20.956;2023-05-08T08:29:24;96020.53;;;3.96;100.00
22047;BME280;11187;49.412;20.956;2023-05-08T08:32:18;96022.31;;;4.00;100.00
22047;BME280;11187;49.412;20.956;2023-05-08T08:35:12;96022.31;;;4.00;100.00
22047;BME280;11187;49.412;20.956;2023-05-08T08:37:45;96024.84;;;4.02;100.00
22047;BME280;11187;49.412;20.956;2023-05-08T08:40:32;96028.38;;;4.08;100.00
22047;BME280;11187;49.412;20.956;2023-05-08T08:43:06;96025.19;;;4.17;100.00
22047;BME280;11187;49.412;20.956;2023-05-08T08:45:53;96027.91;;;4.25;100.00
22047;BME280;11187;49.412;20.956;2023-05-08T08:48:27;96022.03;;;4.29;100.00
22047;BME280;11187;49.412;20.956;2023-05-08T08:51:26;96022.94;;;4.31;100.00
22047;BME280;11187;49.412;20.956;2023-05-08T08:54:08;96022.97;;;4.32;100.00
22047;BME280;11187;49.412;20.956;2023-05-08T08:56:59;96031.47;;;4.34;100.00
22047;BME280;11187;49.412;20.956;2023-05-08T08:59:36;96045.78;;;4.32;100.00
22047;BME280;11187;49.412;20.956;2023-05-08T09:02:24;96043.94;;;4.25;100.00
22047;BME280;11187;49.412;20.956;2023-05-08T09:04:59;96045.47;;;4.17;100.00
22047;BME280;11187;49.412;20.956;2023-05-08T09:07:47;96053.09;;;4.18;100.00
22047;BME280;11187;49.412;20.956;2023-05-08T09:10:23;96048.81;;;4.16;100.00
22047;BME280;11187;49.412;20.956;2023-05-08T09:13:10;96055.69;;;4.22;100.00
22047;BME280;11187;49.412;20.956;2023-05-08T09:15:45;96057.34;;;4.19;100.00
22047;BME280;11187;49.412;20.956;2023-05-08T09:18:39;96059.94;;;4.23;100.00
22047;BME280;11187;49.412;20.956;2023-05-08T09:21:13;96052.38;;;4.24;100.00
22047;BME280;11187;49.412;20.956;2023-05-08T09:24:03;96054.16;;;4.28;100.00
22047;BME280;11187;49.412;20.956;2023-05-08T09:26:40;96055.94;;;4.32;100.00
22047;BME280;11187;49.412;20.956;2023-05-08T09:29:27;96065.31;;;4.38;100.00
22047;BME280;11187;49.412;20.956;2023-05-08T09:32:00;96059.44;;;4.39;100.00
22047;BME280;11187;49.412;20.956;2023-05-08T09:34:51;96061.13;;;4.38;100.00
22047;BME280;11187;49.412;20.956;2023-05-08T09:37:26;96064.59;;;4.44;100.00
22047;BME280;11187;49.412;20.956;2023-05-08T09:40:18;96061.22;;;4.45;100.00
22047;BME280;11187;49.412;20.956;2023-05-08T09:42:51;96062.97;;;4.47;100.00
22047;BME280;11187;49.412;20.956;2023-05-08T09:45:38;96068.88;;;4.46;100.00
22047;BME280;11187;49.412;20.956;2023-05-08T09:48:13;96069.00;;;4.52;100.00
22047;BME280;11187;49.412;20.956;2023-05-08T09:51:06;96067.47;;;4.60;100.00
22047;BME280;11187;49.412;20.956;2023-05-08T09:53:39;96068.34;;;4.61;100.00
22047;BME280;11187;49.412;20.956;2023-05-08T09:59:24;96069.31;;;4.68;100.00
22047;BME280;11187;49.412;20.956;2023-05-08T10:02:13;96069.38;;;4.71;100.00
22047;BME280;11187;49.412;20.956;2023-05-08T10:04:48;96065.19;;;4.74;100.00
22047;BME280;11187;49.412;20.956;2023-05-08T10:07:36;96074.50;;;4.74;100.00
22047;BME280;11187;49.412;20.956;2023-05-08T10:10:09;96083.03;;;4.77;100.00
22047;BME280;11187;49.412;20.956;2023-05-08T10:12:58;96079.91;;;4.91;100.00
22047;BME280;11187;49.412;20.956;2023-05-08T10:15:33;96076.66;;;4.98;100.00
22047;BME280;11187;49.412;20.956;2023-05-08T10:18:28;96070.03;;;5.05;100.00
22047;BME280;11187;49.412;20.956;2023-05-08T10:21:24;96074.22;;;5.04;100.00
22047;BME280;11187;49.412;20.956;2023-05-08T10:24:26;96070.03;;;5.05;100.00
22047;BME280;11187;49.412;20.956;2023-05-08T10:27:27;96078.63;;;5.13;100.00
22047;BME280;11187;49.412;20.956;2023-05-08T10:30:23;96067.72;;;5.18;100.00
22047;BME280;11187;49.412;20.956;2023-05-08T10:33:19;96073.00;;;5.29;100.00
22047;BME280;11187;49.412;20.956;2023-05-08T10:35:57;96069.66;;;5.33;100.00
22047;BME280;11187;49.412;20.956;2023-05-08T10:38:44;96060.47;;;5.40;100.00
22047;BME280;11187;49.412;20.956;2023-05-08T10:41:19;96060.69;;;5.54;100.00
22047;BME280;11187;49.412;20.956;2023-05-08T10:44:08;96053.25;;;5.64;100.00
22047;BME280;11187;49.412;20.956;2023-05-08T10:46:56;96057.59;;;5.70;100.00
22047;BME280;11187;49.412;20.956;2023-05-08T10:49:59;96050.06;;;5.78;100.00
22047;BME280;11187;49.412;20.956;2023-05-08T10:52:40;96042.41;;;5.75;100.00
22047;BME280;11187;49.412;20.956;2023-05-08T10:55:30;96045.78;;;5.74;100.00
22047;BME280;11187;49.412;20.956;2023-05-08T11:03:41;96048.13;;;5.61;100.00
22047;BME280;11187;49.412;20.956;2023-05-08T11:06:46;96056.56;;;5.60;100.00
22047;BME280;11187;49.412;20.956;2023-05-08T11:09:22;96056.56;;;5.60;100.00
22047;BME280;11187;49.412;20.956;2023-05-08T11:12:25;96061.53;;;5.53;100.00
22047;BME280;11187;49.412;20.956;2023-05-08T11:15:06;96058.16;;;5.52;100.00
22047;BME280;11187;49.412;20.956;2023-05-08T11:17:53;96059.81;;;5.52;100.00
22047;BME280;11187;49.412;20.956;2023-05-08T11:20:54;96066.66;;;5.56;100.00
22047;BME280;11187;49.412;20.956;2023-05-08T11:23:55;96057.44;;;5.61;100.00
22047;BME280;11187;49.412;20.956;2023-05-08T11:26:38;96053.44;;;5.75;100.00
22047;BME280;11187;49.412;20.956;2023-05-08T11:29:32;96052.81;;;5.92;100.00
22047;BME280;11187;49.412;20.956;2023-05-08T11:35:56;96046.53;;;6.26;99.88
22047;BME280;11187;49.412;20.956;2023-05-08T11:39:09;96039.88;;;6.34;99.19
22047;BME280;11187;49.412;20.956;2023-05-08T11:41:47;96041.47;;;6.26;98.54
22047;BME280;11187;49.412;20.956;2023-05-08T11:44:41;96047.34;;;6.22;98.44
22047;BME280;11187;49.412;20.956;2023-05-08T11:47:41;96047.38;;;6.23;99.40
22047;BME280;11187;49.412;20.956;2023-05-08T11:50:35;96049.00;;;6.20;99.13
22047;BME280;11187;49.412;20.956;2023-05-08T11:53:08;96053.38;;;6.27;97.97
22047;BME280;11187;49.412;20.956;2023-05-08T11:56:03;96044.25;;;6.43;98.52
22047;BME280;11187;49.412;20.956;2023-05-08T11:59:04;96052.28;;;6.78;95.24
22047;BME280;11187;49.412;20.956;2023-05-08T12:01:38;96046.53;;;6.96;95.86
22047;BME280;11187;49.412;20.956;2023-05-08T12:04:42;96030.72;;;7.31;96.59
22047;BME280;11187;49.412;20.956;2023-05-08T12:07:16;96034.28;;;7.47;94.28
22047;BME280;11187;49.412;20.956;2023-05-08T12:10:03;96031.72;;;7.44;92.86
22047;BME280;11187;49.412;20.956;2023-05-08T12:12:40;96030.81;;;7.39;92.78
22047;BME280;11187;49.412;20.956;2023-05-08T12:15:34;96028.19;;;7.31;92.81
22047;BME280;11187;49.412;20.956;2023-05-08T12:18:28;96029.00;;;7.22;93.29
22047;BME280;11187;49.412;20.956;2023-05-08T12:21:22;96042.50;;;7.20;93.91
22047;BME280;11187;49.412;20.956;2023-05-08T12:24:16;96037.44;;;7.18;93.87
22047;BME280;11187;49.412;20.956;2023-05-08T12:27:11;96045.91;;;7.16;93.75
22047;BME280;11187;49.412;20.956;2023-05-08T12:29:44;96042.47;;;7.12;94.11
22047;BME280;11187;49.412;20.956;2023-05-08T12:32:39;96052.59;;;7.07;92.92
22047;BME280;11187;49.412;20.956;2023-05-08T12:35:14;96054.16;;;6.93;92.25
22047;BME280;11187;49.412;20.956;2023-05-08T12:38:08;96058.28;;;6.82;92.29
22047;BME280;11187;49.412;20.956;2023-05-08T12:41:02;96065.81;;;6.73;91.54
22047;BME280;11187;49.412;20.956;2023-05-08T12:43:56;96064.00;;;6.64;92.50
22047;BME280;11187;49.412;20.956;2023-05-08T12:46:52;96056.38;;;6.65;92.85
22047;BME280;11187;49.412;20.956;2023-05-08T12:49:29;96051.34;;;6.72;93.56
22047;BME280;11187;49.412;20.956;2023-05-08T12:52:24;96049.75;;;6.80;92.38
22047;BME280;11187;49.412;20.956;2023-05-08T12:54:59;96048.84;;;6.73;91.75
22047;BME280;11187;49.412;20.956;2023-05-08T12:57:46;96041.19;;;6.70;91.81
22047;BME280;11187;49.412;20.956;2023-05-08T13:00:19;96026.72;;;6.69;92.31
22047;BME280;11187;49.412;20.956;2023-05-08T13:03:22;96031.03;;;6.75;92.21
22047;BME280;11187;49.412;20.956;2023-05-08T13:05:58;96021.94;;;6.95;92.75
22047;BME280;11187;49.412;20.956;2023-05-08T13:08:52;96027.25;;;7.18;92.41
22047;BME280;11187;49.412;20.956;2023-05-08T13:11:30;96022.22;;;7.27;90.92
22047;BME280;11187;49.412;20.956;2023-05-08T13:14:18;96024.81;;;7.29;89.52
22047;BME280;11187;49.412;20.956;2023-05-08T13:16:59;96040.00;;;7.24;89.56
22047;BME280;11187;49.412;20.956;2023-05-08T13:19:53;96039.16;;;7.21;89.42
22047;BME280;11187;49.412;20.956;2023-05-08T13:22:48;96040.81;;;7.16;89.94
22047;BME280;11187;49.412;20.956;2023-05-08T13:25:42;96053.50;;;7.11;89.75
22047;BME280;11187;49.412;20.956;2023-05-08T13:28:36;96043.28;;;7.09;90.12
22047;BME280;11187;49.412;20.956;2023-05-08T13:31:30;96052.63;;;7.09;90.32
22047;BME280;11187;49.412;20.956;2023-05-08T13:34:24;96040.66;;;7.03;90.54
22047;BME280;11187;49.412;20.956;2023-05-08T13:36:57;96044.94;;;7.04;90.43
22047;BME280;11187;49.412;20.956;2023-05-08T13:39:51;96030.53;;;7.08;90.71
22047;BME280;11187;49.412;20.956;2023-05-08T13:42:45;96033.19;;;7.22;90.63
22047;BME280;11187;49.412;20.956;2023-05-08T13:45:19;96030.75;;;7.32;90.79
22047;BME280;11187;49.412;20.956;2023-05-08T13:48:13;96028.28;;;7.42;90.14
22047;BME280;11187;49.412;20.956;2023-05-08T13:51:07;96034.25;;;7.44;90.29
22047;BME280;11187;49.412;20.956;2023-05-08T13:53:40;96019.91;;;7.55;90.00
22047;BME280;11187;49.412;20.956;2023-05-08T13:56:34;96021.72;;;7.65;87.40
22047;BME280;11187;49.412;20.956;2023-05-08T13:59:28;96007.28;;;7.72;87.78
22047;BME280;11187;49.412;20.956;2023-05-08T14:02:02;96021.78;;;7.81;87.42
22047;BME280;11187;49.412;20.956;2023-05-08T14:04:56;96022.69;;;7.87;86.31
22047;BME280;11187;49.412;20.956;2023-05-08T14:07:30;96020.13;;;7.87;85.83
22047;BME280;11187;49.412;20.956;2023-05-08T14:10:24;96021.78;;;7.81;86.64
22047;BME280;11187;49.412;20.956;2023-05-08T14:13:18;96021.75;;;7.76;86.33
22047;BME280;11187;49.412;20.956;2023-05-08T14:16:12;96014.91;;;7.67;86.33
22047;BME280;11187;49.412;20.956;2023-05-08T14:19:06;96013.16;;;7.59;85.97
22047;BME280;11187;49.412;20.956;2023-05-08T14:21:39;96023.31;;;7.54;86.98
22047;BME280;11187;49.412;20.956;2023-05-08T14:24:19;96025.81;;;7.51;87.40
22047;BME280;11187;49.412;20.956;2023-05-08T14:26:59;96024.91;;;7.44;87.05
22047;BME280;11187;49.412;20.956;2023-05-08T14:29:33;96032.53;;;7.41;87.64
22047;BME280;11187;49.412;20.956;2023-05-08T14:32:20;96036.69;;;7.30;87.57
22047;BME280;11187;49.412;20.956;2023-05-08T14:34:53;96029.78;;;7.20;88.31
22047;BME280;11187;49.412;20.956;2023-05-08T14:37:40;96037.38;;;7.15;88.06
22047;BME280;11187;49.412;20.956;2023-05-08T14:40:13;96042.44;;;7.10;88.58
22047;BME280;11187;49.412;20.956;2023-05-08T14:43:03;96028.00;;;7.09;88.74
22047;BME280;11187;49.412;20.956;2023-05-08T14:45:37;96035.66;;;7.09;89.50
22047;BME280;11187;49.412;20.956;2023-05-08T14:48:24;96038.97;;;7.04;89.38
22047;BME280;11187;49.412;20.956;2023-05-08T14:50:59;96053.41;;;7.02;89.52
22047;BME280;11187;49.412;20.956;2023-05-08T14:53:46;96059.25;;;6.96;89.66
22047;BME280;11187;49.412;20.956;2023-05-08T14:56:20;96051.59;;;6.93;89.34
22047;BME280;11187;49.412;20.956;2023-05-08T14:59:33;96054.97;;;6.90;89.48
22047;BME280;11187;49.412;20.956;2023-05-08T15:02:47;96055.81;;;6.91;89.75
22047;BME280;11187;49.412;20.956;2023-05-08T15:05:41;96050.72;;;6.93;89.69
22047;BME280;11187;49.412;20.956;2023-05-08T15:08:15;96055.94;;;7.03;90.27